sensor_id;sensor_type;location;lat;lon;timestamp;P1;durP1;ratioP1;P2;durP2;ratioP2
72275;SDS011;61204;49.980;8.358;2024-03-22T00:01:55;19.77;;;11.05;;
72275;SDS011;61204;49.980;8.358;2024-03-22T00:04:21;23.15;;;11.85;;
72275;SDS011;61204;49.980;8.358;2024-03-22T00:06:48;20.00;;;11.02;;
72275;SDS011;61204;49.980;8.358;2024-03-22T00:09:15;17.60;;;11.38;;
72275;SDS011;61204;49.980;8.358;2024-03-22T00:11:42;18.88;;;11.13;;
72275;SDS011;61204;49.980;8.358;2024-03-22T00:14:09;17.58;;;10.98;;
72275;SDS011;61204;49.980;8.358;2024-03-22T00:16:36;22.90;;;12.70;;
72275;SDS011;61204;49.980;8.358;2024-03-22T00:19:03;22.27;;;11.65;;
72275;SDS011;61204;49.980;8.358;2024-03-22T00:21:29;21.38;;;13.15;;
72275;SDS011;61204;49.980;8.358;2024-03-22T00:23:56;22.27;;;11.55;;
72275;SDS011;61204;49.980;8.358;2024-03-22T00:26:22;21.10;;;12.35;;
72275;SDS011;61204;49.980;8.358;2024-03-22T00:28:48;23.58;;;12.88;;
72275;SDS011;61204;49.980;8.358;2024-03-22T00:31:14;19.55;;;10.98;;
72275;SDS011;61204;49.980;8.358;2024-03-22T00:33:41;23.88;;;11.98;;
72275;SDS011;61204;49.980;8.358;2024-03-22T00:36:09;24.73;;;13.13;;
72275;SDS011;61204;49.980;8.358;2024-03-22T00:38:35;22.85;;;11.77;;
72275;SDS011;61204;49.980;8.358;2024-03-22T00:41:01;21.85;;;13.77;;
72275;SDS011;61204;49.980;8.358;2024-03-22T00:43:27;21.00;;;12.38;;
72275;SDS011;61204;49.980;8.358;2024-03-22T00:45:52;24.77;;;12.88;;
72275;SDS011;61204;49.980;8.358;2024-03-22T00:48:18;22.05;;;11.52;;
72275;SDS011;61204;49.980;8.358;2024-03-22T00:50:44;18.88;;;10.98;;
72275;SDS011;61204;49.980;8.358;2024-03-22T00:53:09;23.98;;;13.35;;
72275;SDS011;61204;49.980;8.358;2024-03-22T00:55:35;19.60;;;11.18;;
72275;SDS011;61204;49.980;8.358;2024-03-22T00:58:01;20.52;;;11.50;;
72275;SDS011;61204;49.980;8.358;2024-03-22T01:00:27;17.65;;;10.75;;
72275;SDS011;61204;49.980;8.358;2024-03-22T01:02:52;19.08;;;11.35;;
72275;SDS011;61204;49.980;8.358;2024-03-22T01:05:18;20.38;;;11.73;;
72275;SDS011;61204;49.980;8.358;2024-03-22T01:07:44;20.02;;;11.52;;
72275;SDS011;61204;49.980;8.358;2024-03-22T01:10:10;19.13;;;11.52;;
72275;SDS011;61204;49.980;8.358;2024-03-22T01:12:37;22.17;;;11.60;;
72275;SDS011;61204;49.980;8.358;2024-03-22T01:15:04;22.08;;;13.10;;
72275;SDS011;61204;49.980;8.358;2024-03-22T01:17:32;21.05;;;12.27;;
72275;SDS011;61204;49.980;8.358;2024-03-22T01:19:58;22.17;;;12.63;;
72275;SDS011;61204;49.980;8.358;2024-03-22T01:22:24;23.95;;;13.57;;
72275;SDS011;61204;49.980;8.358;2024-03-22T01:24:50;23.27;;;13.23;;
72275;SDS011;61204;49.980;8.358;2024-03-22T01:27:18;21.30;;;13.05;;
72275;SDS011;61204;49.980;8.358;2024-03-22T01:29:44;19.95;;;12.07;;
72275;SDS011;61204;49.980;8.358;2024-03-22T01:32:11;22.65;;;12.30;;
72275;SDS011;61204;49.980;8.358;2024-03-22T01:34:39;21.98;;;12.82;;
72275;SDS011;61204;49.980;8.358;2024-03-22T01:37:05;20.73;;;12.43;;
72275;SDS011;61204;49.980;8.358;2024-03-22T01:39:31;22.02;;;11.93;;
72275;SDS011;61204;49.980;8.358;2024-03-22T01:41:59;23.48;;;13.48;;
72275;SDS011;61204;49.980;8.358;2024-03-22T01:44:28;24.25;;;12.68;;
72275;SDS011;61204;49.980;8.358;2024-03-22T01:46:57;19.25;;;11.77;;
72275;SDS011;61204;49.980;8.358;2024-03-22T01:49:25;24.20;;;12.68;;
72275;SDS011;61204;49.980;8.358;2024-03-22T01:51:54;25.83;;;13.60;;
72275;SDS011;61204;49.980;8.358;2024-03-22T01:54:20;26.58;;;13.85;;
72275;SDS011;61204;49.980;8.358;2024-03-22T01:56:48;26.63;;;14.27;;
72275;SDS011;61204;49.980;8.358;2024-03-22T01:59:17;25.02;;;13.23;;
72275;SDS011;61204;49.980;8.358;2024-03-22T02:01:44;27.90;;;13.75;;
72275;SDS011;61204;49.980;8.358;2024-03-22T02:04:09;25.80;;;13.70;;
72275;SDS011;61204;49.980;8.358;2024-03-22T02:06:35;27.85;;;14.20;;
72275;SDS011;61204;49.980;8.358;2024-03-22T02:09:00;28.60;;;13.98;;
72275;SDS011;61204;49.980;8.358;2024-03-22T02:11:29;23.85;;;13.15;;
72275;SDS011;61204;49.980;8.358;2024-03-22T02:13:57;25.60;;;13.52;;
72275;SDS011;61204;49.980;8.358;2024-03-22T02:16:23;25.80;;;14.00;;
72275;SDS011;61204;49.980;8.358;2024-03-22T02:18:48;27.30;;;14.50;;
72275;SDS011;61204;49.980;8.358;2024-03-22T02:21:15;21.77;;;12.77;;
72275;SDS011;61204;49.980;8.358;2024-03-22T02:23:42;25.77;;;14.23;;
72275;SDS011;61204;49.980;8.358;2024-03-22T02:26:10;28.25;;;14.10;;
72275;SDS011;61204;49.980;8.358;2024-03-22T02:28:38;23.83;;;12.75;;
72275;SDS011;61204;49.980;8.358;2024-03-22T02:31:04;26.95;;;14.13;;
72275;SDS011;61204;49.980;8.358;2024-03-22T02:33:30;25.20;;;13.63;;
72275;SDS011;61204;49.980;8.358;2024-03-22T02:35:56;25.92;;;13.15;;
72275;SDS011;61204;49.980;8.358;2024-03-22T02:38:22;24.60;;;13.25;;
72275;SDS011;61204;49.980;8.358;2024-03-22T02:40:49;22.63;;;13.00;;
72275;SDS011;61204;49.980;8.358;2024-03-22T02:43:20;20.13;;;11.65;;
72275;SDS011;61204;49.980;8.358;2024-03-22T02:45:48;24.45;;;12.20;;
72275;SDS011;61204;49.980;8.358;2024-03-22T02:48:14;26.10;;;14.30;;
72275;SDS011;61204;49.980;8.358;2024-03-22T02:50:42;26.65;;;13.15;;
72275;SDS011;61204;49.980;8.358;2024-03-22T02:53:08;23.75;;;12.68;;
72275;SDS011;61204;49.980;8.358;2024-03-22T02:55:37;31.20;;;15.20;;
72275;SDS011;61204;49.980;8.358;2024-03-22T02:58:05;25.70;;;13.20;;
72275;SDS011;61204;49.980;8.358;2024-03-22T03:00:32;22.80;;;13.40;;
72275;SDS011;61204;49.980;8.358;2024-03-22T03:03:04;29.77;;;15.10;;
72275;SDS011;61204;49.980;8.358;2024-03-22T03:05:31;31.80;;;14.95;;
72275;SDS011;61204;49.980;8.358;2024-03-22T03:07:57;27.30;;;14.40;;
72275;SDS011;61204;49.980;8.358;2024-03-22T03:10:23;28.25;;;14.13;;
72275;SDS011;61204;49.980;8.358;2024-03-22T03:12:50;28.00;;;14.02;;
72275;SDS011;61204;49.980;8.358;2024-03-22T03:15:16;26.27;;;13.82;;
72275;SDS011;61204;49.980;8.358;2024-03-22T03:17:42;29.35;;;14.65;;
72275;SDS011;61204;49.980;8.358;2024-03-22T03:20:08;27.98;;;14.73;;
72275;SDS011;61204;49.980;8.358;2024-03-22T03:22:38;32.20;;;15.80;;
72275;SDS011;61204;49.980;8.358;2024-03-22T03:25:07;26.75;;;13.70;;
72275;SDS011;61204;49.980;8.358;2024-03-22T03:27:33;34.08;;;16.48;;
72275;SDS011;61204;49.980;8.358;2024-03-22T03:29:59;33.10;;;16.38;;
72275;SDS011;61204;49.980;8.358;2024-03-22T03:32:26;33.67;;;16.52;;
72275;SDS011;61204;49.980;8.358;2024-03-22T03:34:53;36.10;;;15.63;;
72275;SDS011;61204;49.980;8.358;2024-03-22T03:37:19;35.03;;;17.10;;
72275;SDS011;61204;49.980;8.358;2024-03-22T03:39:45;30.73;;;16.48;;
72275;SDS011;61204;49.980;8.358;2024-03-22T03:42:10;33.75;;;14.63;;
72275;SDS011;61204;49.980;8.358;2024-03-22T03:44:36;27.90;;;14.95;;
72275;SDS011;61204;49.980;8.358;2024-03-22T03:47:02;31.95;;;15.48;;
72275;SDS011;61204;49.980;8.358;2024-03-22T03:49:28;34.70;;;16.35;;
72275;SDS011;61204;49.980;8.358;2024-03-22T03:51:54;27.88;;;14.25;;
72275;SDS011;61204;49.980;8.358;2024-03-22T03:54:19;33.28;;;15.25;;
72275;SDS011;61204;49.980;8.358;2024-03-22T03:56:45;28.30;;;14.52;;
72275;SDS011;61204;49.980;8.358;2024-03-22T03:59:10;34.83;;;16.92;;
72275;SDS011;61204;49.980;8.358;2024-03-22T04:01:36;27.83;;;14.68;;
72275;SDS011;61204;49.980;8.358;2024-03-22T04:04:02;26.52;;;14.55;;
72275;SDS011;61204;49.980;8.358;2024-03-22T04:06:28;25.15;;;13.65;;
72275;SDS011;61204;49.980;8.358;2024-03-22T04:08:57;27.30;;;14.15;;
72275;SDS011;61204;49.980;8.358;2024-03-22T04:11:25;26.33;;;13.93;;
72275;SDS011;61204;49.980;8.358;2024-03-22T04:13:54;32.45;;;14.48;;
72275;SDS011;61204;49.980;8.358;2024-03-22T04:16:19;31.08;;;14.95;;
72275;SDS011;61204;49.980;8.358;2024-03-22T04:18:45;26.10;;;14.20;;
72275;SDS011;61204;49.980;8.358;2024-03-22T04:21:11;29.27;;;15.10;;
72275;SDS011;61204;49.980;8.358;2024-03-22T04:23:36;28.70;;;13.85;;
72275;SDS011;61204;49.980;8.358;2024-03-22T04:26:02;37.13;;;15.57;;
72275;SDS011;61204;49.980;8.358;2024-03-22T04:28:28;26.15;;;12.55;;
72275;SDS011;61204;49.980;8.358;2024-03-22T04:33:31;25.17;;;13.73;;
72275;SDS011;61204;49.980;8.358;2024-03-22T04:35:58;30.75;;;13.18;;
72275;SDS011;61204;49.980;8.358;2024-03-22T04:38:26;24.33;;;13.35;;
72275;SDS011;61204;49.980;8.358;2024-03-22T04:40:53;25.95;;;13.15;;
72275;SDS011;61204;49.980;8.358;2024-03-22T04:43:25;24.83;;;14.07;;
72275;SDS011;61204;49.980;8.358;2024-03-22T04:45:51;23.08;;;12.65;;
72275;SDS011;61204;49.980;8.358;2024-03-22T04:48:18;28.02;;;13.15;;
72275;SDS011;61204;49.980;8.358;2024-03-22T04:50:46;26.13;;;13.88;;
72275;SDS011;61204;49.980;8.358;2024-03-22T04:53:15;27.35;;;13.80;;
72275;SDS011;61204;49.980;8.358;2024-03-22T04:55:48;26.10;;;13.60;;
72275;SDS011;61204;49.980;8.358;2024-03-22T04:58:16;32.50;;;14.52;;
72275;SDS011;61204;49.980;8.358;2024-03-22T05:00:45;25.80;;;13.60;;
72275;SDS011;61204;49.980;8.358;2024-03-22T05:03:12;28.63;;;13.95;;
72275;SDS011;61204;49.980;8.358;2024-03-22T05:05:39;26.60;;;13.50;;
72275;SDS011;61204;49.980;8.358;2024-03-22T05:08:05;26.98;;;14.30;;
72275;SDS011;61204;49.980;8.358;2024-03-22T05:10:32;28.13;;;14.32;;
72275;SDS011;61204;49.980;8.358;2024-03-22T05:12:59;24.27;;;12.13;;
72275;SDS011;61204;49.980;8.358;2024-03-22T05:15:25;32.17;;;13.82;;
72275;SDS011;61204;49.980;8.358;2024-03-22T05:17:51;26.98;;;13.65;;
72275;SDS011;61204;49.980;8.358;2024-03-22T05:20:18;26.30;;;14.00;;
72275;SDS011;61204;49.980;8.358;2024-03-22T05:22:44;27.45;;;14.40;;
72275;SDS011;61204;49.980;8.358;2024-03-22T05:25:11;31.55;;;15.40;;
72275;SDS011;61204;49.980;8.358;2024-03-22T05:27:38;24.42;;;13.55;;
72275;SDS011;61204;49.980;8.358;2024-03-22T05:30:03;26.73;;;12.32;;
72275;SDS011;61204;49.980;8.358;2024-03-22T05:32:30;26.35;;;13.70;;
72275;SDS011;61204;49.980;8.358;2024-03-22T05:34:58;28.63;;;14.15;;
72275;SDS011;61204;49.980;8.358;2024-03-22T05:37:26;31.35;;;15.55;;
72275;SDS011;61204;49.980;8.358;2024-03-22T05:39:51;32.17;;;15.07;;
72275;SDS011;61204;49.980;8.358;2024-03-22T05:42:20;29.48;;;15.75;;
72275;SDS011;61204;49.980;8.358;2024-03-22T05:44:45;27.15;;;14.75;;
72275;SDS011;61204;49.980;8.358;2024-03-22T05:47:11;30.33;;;14.88;;
72275;SDS011;61204;49.980;8.358;2024-03-22T05:49:36;26.17;;;14.38;;
72275;SDS011;61204;49.980;8.358;2024-03-22T05:52:02;25.45;;;13.02;;
72275;SDS011;61204;49.980;8.358;2024-03-22T05:54:28;25.48;;;13.18;;
72275;SDS011;61204;49.980;8.358;2024-03-22T05:56:54;22.30;;;13.10;;
72275;SDS011;61204;49.980;8.358;2024-03-22T05:59:21;25.98;;;13.60;;
72275;SDS011;61204;49.980;8.358;2024-03-22T06:01:46;25.20;;;13.85;;
72275;SDS011;61204;49.980;8.358;2024-03-22T06:04:12;24.15;;;13.05;;
72275;SDS011;61204;49.980;8.358;2024-03-22T06:06:38;28.25;;;13.10;;
72275;SDS011;61204;49.980;8.358;2024-03-22T06:09:06;24.65;;;12.48;;
72275;SDS011;61204;49.980;8.358;2024-03-22T06:11:36;27.23;;;12.45;;
72275;SDS011;61204;49.980;8.358;2024-03-22T06:14:02;23.55;;;12.27;;
72275;SDS011;61204;49.980;8.358;2024-03-22T06:16:28;22.40;;;11.68;;
72275;SDS011;61204;49.980;8.358;2024-03-22T06:18:53;22.63;;;12.68;;
72275;SDS011;61204;49.980;8.358;2024-03-22T06:21:19;23.60;;;12.77;;
72275;SDS011;61204;49.980;8.358;2024-03-22T06:23:49;21.20;;;11.18;;
72275;SDS011;61204;49.980;8.358;2024-03-22T06:26:18;24.25;;;13.30;;
72275;SDS011;61204;49.980;8.358;2024-03-22T06:28:44;25.77;;;12.65;;
72275;SDS011;61204;49.980;8.358;2024-03-22T06:31:09;21.73;;;11.18;;
72275;SDS011;61204;49.980;8.358;2024-03-22T06:33:35;21.10;;;11.73;;
72275;SDS011;61204;49.980;8.358;2024-03-22T06:36:01;15.35;;;10.23;;
72275;SDS011;61204;49.980;8.358;2024-03-22T06:38:28;19.60;;;10.80;;
72275;SDS011;61204;49.980;8.358;2024-03-22T06:40:54;19.55;;;10.68;;
72275;SDS011;61204;49.980;8.358;2024-03-22T06:43:20;17.58;;;10.93;;
72275;SDS011;61204;49.980;8.358;2024-03-22T06:45:45;17.17;;;10.63;;
72275;SDS011;61204;49.980;8.358;2024-03-22T06:48:11;18.17;;;9.25;;
72275;SDS011;61204;49.980;8.358;2024-03-22T06:50:36;18.98;;;10.60;;
72275;SDS011;61204;49.980;8.358;2024-03-22T06:53:02;17.10;;;9.98;;
72275;SDS011;61204;49.980;8.358;2024-03-22T06:55:28;19.85;;;10.93;;
72275;SDS011;61204;49.980;8.358;2024-03-22T06:57:53;18.15;;;10.02;;
72275;SDS011;61204;49.980;8.358;2024-03-22T07:00:19;17.70;;;10.30;;
72275;SDS011;61204;49.980;8.358;2024-03-22T07:02:45;15.57;;;9.70;;
72275;SDS011;61204;49.980;8.358;2024-03-22T07:05:10;16.77;;;9.60;;
72275;SDS011;61204;49.980;8.358;2024-03-22T07:07:37;15.82;;;9.38;;
72275;SDS011;61204;49.980;8.358;2024-03-22T07:10:03;19.23;;;9.85;;
72275;SDS011;61204;49.980;8.358;2024-03-22T07:12:33;16.13;;;9.52;;
72275;SDS011;61204;49.980;8.358;2024-03-22T07:15:02;19.13;;;9.90;;
72275;SDS011;61204;49.980;8.358;2024-03-22T07:17:29;15.98;;;9.48;;
72275;SDS011;61204;49.980;8.358;2024-03-22T07:19:54;15.55;;;9.75;;
72275;SDS011;61204;49.980;8.358;2024-03-22T07:22:21;13.60;;;8.90;;
72275;SDS011;61204;49.980;8.358;2024-03-22T07:24:47;14.07;;;8.63;;
72275;SDS011;61204;49.980;8.358;2024-03-22T07:27:16;15.93;;;8.93;;
72275;SDS011;61204;49.980;8.358;2024-03-22T07:29:42;17.10;;;9.15;;
72275;SDS011;61204;49.980;8.358;2024-03-22T07:32:11;15.40;;;9.00;;
72275;SDS011;61204;49.980;8.358;2024-03-22T07:34:36;13.23;;;8.70;;
72275;SDS011;61204;49.980;8.358;2024-03-22T07:37:07;15.57;;;8.85;;
72275;SDS011;61204;49.980;8.358;2024-03-22T07:39:32;13.63;;;9.23;;
72275;SDS011;61204;49.980;8.358;2024-03-22T07:41:58;14.13;;;8.45;;
72275;SDS011;61204;49.980;8.358;2024-03-22T07:44:23;12.98;;;7.78;;
72275;SDS011;61204;49.980;8.358;2024-03-22T07:46:49;12.90;;;8.20;;
72275;SDS011;61204;49.980;8.358;2024-03-22T07:49:16;15.70;;;8.55;;
72275;SDS011;61204;49.980;8.358;2024-03-22T07:51:41;14.65;;;8.45;;
72275;SDS011;61204;49.980;8.358;2024-03-22T07:54:07;11.85;;;7.88;;
72275;SDS011;61204;49.980;8.358;2024-03-22T07:56:32;13.82;;;7.55;;
72275;SDS011;61204;49.980;8.358;2024-03-22T07:59:00;15.23;;;8.18;;
72275;SDS011;61204;49.980;8.358;2024-03-22T08:01:25;14.07;;;8.18;;
72275;SDS011;61204;49.980;8.358;2024-03-22T08:03:51;16.45;;;7.55;;
72275;SDS011;61204;49.980;8.358;2024-03-22T08:06:17;15.02;;;8.20;;
72275;SDS011;61204;49.980;8.358;2024-03-22T08:08:43;10.98;;;7.50;;
72275;SDS011;61204;49.980;8.358;2024-03-22T08:11:12;10.98;;;7.03;;
72275;SDS011;61204;49.980;8.358;2024-03-22T08:13:38;13.45;;;8.13;;
72275;SDS011;61204;49.980;8.358;2024-03-22T08:16:04;12.50;;;7.50;;
72275;SDS011;61204;49.980;8.358;2024-03-22T08:18:30;12.30;;;7.57;;
72275;SDS011;61204;49.980;8.358;2024-03-22T08:21:01;13.43;;;7.88;;
72275;SDS011;61204;49.980;8.358;2024-03-22T08:23:29;13.77;;;7.93;;
72275;SDS011;61204;49.980;8.358;2024-03-22T08:25:54;14.02;;;7.07;;
72275;SDS011;61204;49.980;8.358;2024-03-22T08:28:22;13.65;;;7.57;;
72275;SDS011;61204;49.980;8.358;2024-03-22T08:30:48;11.32;;;7.53;;
72275;SDS011;61204;49.980;8.358;2024-03-22T08:33:16;10.82;;;7.07;;
72275;SDS011;61204;49.980;8.358;2024-03-22T08:35:43;14.13;;;7.15;;
72275;SDS011;61204;49.980;8.358;2024-03-22T08:38:08;15.40;;;8.52;;
72275;SDS011;61204;49.980;8.358;2024-03-22T08:40:39;13.68;;;8.43;;
72275;SDS011;61204;49.980;8.358;2024-03-22T08:43:06;12.23;;;7.68;;
72275;SDS011;61204;49.980;8.358;2024-03-22T08:45:34;14.10;;;7.55;;
72275;SDS011;61204;49.980;8.358;2024-03-22T08:48:01;12.52;;;8.10;;
72275;SDS011;61204;49.980;8.358;2024-03-22T08:50:27;12.05;;;7.07;;
72275;SDS011;61204;49.980;8.358;2024-03-22T08:52:55;12.88;;;7.47;;
72275;SDS011;61204;49.980;8.358;2024-03-22T08:55:21;12.30;;;7.60;;
72275;SDS011;61204;49.980;8.358;2024-03-22T08:57:49;10.02;;;7.25;;
72275;SDS011;61204;49.980;8.358;2024-03-22T09:00:15;9.93;;;7.15;;
72275;SDS011;61204;49.980;8.358;2024-03-22T09:02:43;11.27;;;6.95;;
72275;SDS011;61204;49.980;8.358;2024-03-22T09:05:08;11.77;;;7.03;;
72275;SDS011;61204;49.980;8.358;2024-03-22T09:07:34;13.88;;;7.18;;
72275;SDS011;61204;49.980;8.358;2024-03-22T09:09:59;9.50;;;5.95;;
72275;SDS011;61204;49.980;8.358;2024-03-22T09:12:25;10.30;;;6.90;;
72275;SDS011;61204;49.980;8.358;2024-03-22T09:14:51;10.20;;;7.18;;
72275;SDS011;61204;49.980;8.358;2024-03-22T09:17:16;12.30;;;7.90;;
72275;SDS011;61204;49.980;8.358;2024-03-22T09:19:42;10.18;;;6.25;;
72275;SDS011;61204;49.980;8.358;2024-03-22T09:22:08;12.02;;;7.45;;
72275;SDS011;61204;49.980;8.358;2024-03-22T09:24:34;10.25;;;6.63;;
72275;SDS011;61204;49.980;8.358;2024-03-22T09:26:59;11.48;;;7.43;;
72275;SDS011;61204;49.980;8.358;2024-03-22T09:29:25;11.63;;;6.88;;
72275;SDS011;61204;49.980;8.358;2024-03-22T09:31:50;8.63;;;6.30;;
72275;SDS011;61204;49.980;8.358;2024-03-22T09:34:16;10.60;;;7.00;;
72275;SDS011;61204;49.980;8.358;2024-03-22T09:36:42;13.40;;;7.05;;
72275;SDS011;61204;49.980;8.358;2024-03-22T09:39:07;12.30;;;6.68;;
72275;SDS011;61204;49.980;8.358;2024-03-22T09:41:33;11.48;;;6.18;;
72275;SDS011;61204;49.980;8.358;2024-03-22T09:44:12;11.00;;;6.68;;
72275;SDS011;61204;49.980;8.358;2024-03-22T09:46:40;8.48;;;6.28;;
72275;SDS011;61204;49.980;8.358;2024-03-22T09:49:08;10.60;;;6.95;;
72275;SDS011;61204;49.980;8.358;2024-03-22T09:51:39;11.73;;;6.45;;
72275;SDS011;61204;49.980;8.358;2024-03-22T09:54:08;10.48;;;6.38;;
72275;SDS011;61204;49.980;8.358;2024-03-22T09:56:37;10.48;;;6.57;;
72275;SDS011;61204;49.980;8.358;2024-03-22T09:59:05;10.18;;;5.85;;
72275;SDS011;61204;49.980;8.358;2024-03-22T10:01:37;7.45;;;5.15;;
72275;SDS011;61204;49.980;8.358;2024-03-22T10:04:06;8.90;;;6.03;;
72275;SDS011;61204;49.980;8.358;2024-03-22T10:06:34;8.95;;;5.75;;
72275;SDS011;61204;49.980;8.358;2024-03-22T10:09:00;10.02;;;5.97;;
72275;SDS011;61204;49.980;8.358;2024-03-22T10:11:29;9.25;;;6.18;;
72275;SDS011;61204;49.980;8.358;2024-03-22T10:13:59;11.00;;;5.90;;
72275;SDS011;61204;49.980;8.358;2024-03-22T10:16:26;7.72;;;5.30;;
72275;SDS011;61204;49.980;8.358;2024-03-22T10:18:51;10.35;;;5.93;;
72275;SDS011;61204;49.980;8.358;2024-03-22T10:21:17;7.57;;;5.25;;
72275;SDS011;61204;49.980;8.358;2024-03-22T10:23:44;9.38;;;6.88;;
72275;SDS011;61204;49.980;8.358;2024-03-22T10:26:13;8.45;;;5.80;;
72275;SDS011;61204;49.980;8.358;2024-03-22T10:28:45;9.15;;;5.72;;
72275;SDS011;61204;49.980;8.358;2024-03-22T10:31:12;7.82;;;5.75;;
72275;SDS011;61204;49.980;8.358;2024-03-22T10:33:40;7.88;;;5.68;;
72275;SDS011;61204;49.980;8.358;2024-03-22T10:36:09;16.23;;;5.90;;
72275;SDS011;61204;49.980;8.358;2024-03-22T10:38:38;8.73;;;6.03;;
72275;SDS011;61204;49.980;8.358;2024-03-22T10:41:05;9.73;;;6.97;;
72275;SDS011;61204;49.980;8.358;2024-03-22T10:43:31;12.05;;;6.93;;
72275;SDS011;61204;49.980;8.358;2024-03-22T10:46:00;9.52;;;6.07;;
72275;SDS011;61204;49.980;8.358;2024-03-22T10:48:31;9.90;;;6.07;;
72275;SDS011;61204;49.980;8.358;2024-03-22T10:50:59;9.43;;;5.72;;
72275;SDS011;61204;49.980;8.358;2024-03-22T10:53:27;10.60;;;5.93;;
72275;SDS011;61204;49.980;8.358;2024-03-22T10:56:02;8.85;;;5.82;;
72275;SDS011;61204;49.980;8.358;2024-03-22T10:58:33;8.35;;;5.20;;
72275;SDS011;61204;49.980;8.358;2024-03-22T11:01:01;10.35;;;5.72;;
72275;SDS011;61204;49.980;8.358;2024-03-22T11:03:30;9.15;;;5.70;;
72275;SDS011;61204;49.980;8.358;2024-03-22T11:06:00;7.50;;;5.03;;
72275;SDS011;61204;49.980;8.358;2024-03-22T11:08:29;8.50;;;4.60;;
72275;SDS011;61204;49.980;8.358;2024-03-22T11:11:08;7.65;;;4.75;;
72275;SDS011;61204;49.980;8.358;2024-03-22T11:13:40;7.43;;;5.00;;
72275;SDS011;61204;49.980;8.358;2024-03-22T11:16:06;7.65;;;3.65;;
72275;SDS011;61204;49.980;8.358;2024-03-22T11:18:35;6.90;;;4.45;;
72275;SDS011;61204;49.980;8.358;2024-03-22T11:21:01;6.10;;;4.40;;
72275;SDS011;61204;49.980;8.358;2024-03-22T11:23:28;9.23;;;5.80;;
72275;SDS011;61204;49.980;8.358;2024-03-22T11:25:53;9.13;;;5.90;;
72275;SDS011;61204;49.980;8.358;2024-03-22T11:28:21;8.52;;;5.60;;
72275;SDS011;61204;49.980;8.358;2024-03-22T11:30:47;8.75;;;5.47;;
72275;SDS011;61204;49.980;8.358;2024-03-22T11:33:13;9.38;;;5.43;;
72275;SDS011;61204;49.980;8.358;2024-03-22T11:35:39;9.20;;;5.50;;
72275;SDS011;61204;49.980;8.358;2024-03-22T11:38:05;8.85;;;5.72;;
72275;SDS011;61204;49.980;8.358;2024-03-22T11:40:30;10.35;;;5.47;;
72275;SDS011;61204;49.980;8.358;2024-03-22T11:42:58;10.90;;;6.88;;
72275;SDS011;61204;49.980;8.358;2024-03-22T11:45:28;11.18;;;6.10;;
72275;SDS011;61204;49.980;8.358;2024-03-22T11:48:01;9.32;;;5.47;;
72275;SDS011;61204;49.980;8.358;2024-03-22T11:50:28;8.80;;;5.32;;
72275;SDS011;61204;49.980;8.358;2024-03-22T11:52:54;8.75;;;5.80;;
72275;SDS011;61204;49.980;8.358;2024-03-22T11:55:21;8.55;;;5.85;;
72275;SDS011;61204;49.980;8.358;2024-03-22T11:57:49;9.68;;;5.75;;
72275;SDS011;61204;49.980;8.358;2024-03-22T12:00:16;9.57;;;6.47;;
72275;SDS011;61204;49.980;8.358;2024-03-22T12:02:44;8.55;;;5.93;;
72275;SDS011;61204;49.980;8.358;2024-03-22T12:05:11;12.88;;;7.00;;
72275;SDS011;61204;49.980;8.358;2024-03-22T12:07:39;11.13;;;7.75;;
72275;SDS011;61204;49.980;8.358;2024-03-22T12:10:05;10.27;;;6.68;;
72275;SDS011;61204;49.980;8.358;2024-03-22T12:12:32;8.80;;;6.30;;
72275;SDS011;61204;49.980;8.358;2024-03-22T12:14:57;11.52;;;6.85;;
72275;SDS011;61204;49.980;8.358;2024-03-22T12:17:23;8.80;;;6.88;;
72275;SDS011;61204;49.980;8.358;2024-03-22T12:19:51;12.60;;;7.15;;
72275;SDS011;61204;49.980;8.358;2024-03-22T12:22:17;14.20;;;7.55;;
72275;SDS011;61204;49.980;8.358;2024-03-22T12:24:43;10.85;;;6.97;;
72275;SDS011;61204;49.980;8.358;2024-03-22T12:27:08;10.52;;;6.55;;
72275;SDS011;61204;49.980;8.358;2024-03-22T12:29:34;9.45;;;5.88;;
72275;SDS011;61204;49.980;8.358;2024-03-22T12:32:00;10.23;;;7.18;;
72275;SDS011;61204;49.980;8.358;2024-03-22T12:34:28;12.65;;;6.65;;
72275;SDS011;61204;49.980;8.358;2024-03-22T12:36:55;10.57;;;7.60;;
72275;SDS011;61204;49.980;8.358;2024-03-22T12:39:21;10.68;;;7.38;;
72275;SDS011;61204;49.980;8.358;2024-03-22T12:41:47;9.05;;;5.68;;
72275;SDS011;61204;49.980;8.358;2024-03-22T12:44:13;9.55;;;6.65;;
72275;SDS011;61204;49.980;8.358;2024-03-22T12:46:38;8.73;;;6.15;;
72275;SDS011;61204;49.980;8.358;2024-03-22T12:49:07;12.20;;;6.75;;
72275;SDS011;61204;49.980;8.358;2024-03-22T12:51:34;13.02;;;7.63;;
72275;SDS011;61204;49.980;8.358;2024-03-22T12:54:03;12.18;;;7.57;;
72275;SDS011;61204;49.980;8.358;2024-03-22T12:56:30;8.77;;;6.13;;
72275;SDS011;61204;49.980;8.358;2024-03-22T12:58:56;10.38;;;6.85;;
72275;SDS011;61204;49.980;8.358;2024-03-22T13:01:25;10.23;;;6.50;;
72275;SDS011;61204;49.980;8.358;2024-03-22T13:03:51;10.13;;;7.43;;
72275;SDS011;61204;49.980;8.358;2024-03-22T13:06:16;13.05;;;7.85;;
72275;SDS011;61204;49.980;8.358;2024-03-22T13:08:42;10.65;;;7.03;;
72275;SDS011;61204;49.980;8.358;2024-03-22T13:11:08;11.27;;;6.55;;
72275;SDS011;61204;49.980;8.358;2024-03-22T13:13:34;11.30;;;6.75;;
72275;SDS011;61204;49.980;8.358;2024-03-22T13:16:01;10.02;;;6.72;;
72275;SDS011;61204;49.980;8.358;2024-03-22T13:18:27;10.93;;;7.03;;
72275;SDS011;61204;49.980;8.358;2024-03-22T13:20:54;11.65;;;8.13;;
72275;SDS011;61204;49.980;8.358;2024-03-22T13:23:22;10.32;;;6.88;;
72275;SDS011;61204;49.980;8.358;2024-03-22T13:25:48;15.98;;;7.95;;
72275;SDS011;61204;49.980;8.358;2024-03-22T13:28:14;11.63;;;7.85;;
72275;SDS011;61204;49.980;8.358;2024-03-22T13:30:39;11.48;;;6.90;;
72275;SDS011;61204;49.980;8.358;2024-03-22T13:33:05;11.45;;;8.13;;
72275;SDS011;61204;49.980;8.358;2024-03-22T13:35:33;24.08;;;10.20;;
72275;SDS011;61204;49.980;8.358;2024-03-22T13:37:59;17.67;;;8.07;;
72275;SDS011;61204;49.980;8.358;2024-03-22T13:40:25;12.73;;;8.23;;
72275;SDS011;61204;49.980;8.358;2024-03-22T13:42:54;13.50;;;8.20;;
72275;SDS011;61204;49.980;8.358;2024-03-22T13:45:24;17.45;;;8.05;;
72275;SDS011;61204;49.980;8.358;2024-03-22T13:47:54;16.02;;;9.13;;
72275;SDS011;61204;49.980;8.358;2024-03-22T13:50:20;16.10;;;8.48;;
72275;SDS011;61204;49.980;8.358;2024-03-22T13:52:47;15.48;;;8.77;;
72275;SDS011;61204;49.980;8.358;2024-03-22T13:55:13;11.68;;;7.93;;
72275;SDS011;61204;49.980;8.358;2024-03-22T13:57:38;12.43;;;8.95;;
72275;SDS011;61204;49.980;8.358;2024-03-22T14:00:04;12.27;;;7.90;;
72275;SDS011;61204;49.980;8.358;2024-03-22T14:02:32;13.50;;;8.10;;
72275;SDS011;61204;49.980;8.358;2024-03-22T14:04:58;16.02;;;9.48;;
72275;SDS011;61204;49.980;8.358;2024-03-22T14:07:26;13.70;;;8.57;;
72275;SDS011;61204;49.980;8.358;2024-03-22T14:09:52;14.75;;;8.85;;
72275;SDS011;61204;49.980;8.358;2024-03-22T14:12:17;17.27;;;9.90;;
72275;SDS011;61204;49.980;8.358;2024-03-22T14:14:43;29.77;;;11.50;;
72275;SDS011;61204;49.980;8.358;2024-03-22T14:17:09;14.57;;;10.02;;
72275;SDS011;61204;49.980;8.358;2024-03-22T14:19:38;17.50;;;9.68;;
72275;SDS011;61204;49.980;8.358;2024-03-22T14:22:04;13.98;;;9.60;;
72275;SDS011;61204;49.980;8.358;2024-03-22T14:24:30;15.77;;;8.60;;
72275;SDS011;61204;49.980;8.358;2024-03-22T14:26:55;15.35;;;9.35;;
72275;SDS011;61204;49.980;8.358;2024-03-22T14:29:23;15.77;;;9.90;;
72275;SDS011;61204;49.980;8.358;2024-03-22T14:31:48;16.15;;;9.82;;